This is the latest recevied weather packets stored in our database for station/object AC0YE. If no packets are shown the sender has not sent any weather packets the latest 10 day(s).
| Time | Temp. | Humidity | Pressure | Rain* | Wind** | Luminosity | Snow |
|---|---|---|---|---|---|---|---|
| 1777172116 | 15.56° C | 67% | 1014.8 hPa | 0 mm | - | - | - |
| 1777170616 | 16.11° C | 65% | 1015 hPa | 0 mm | - | - | - |
| 1777170316 | 16.11° C | 64% | 1015 hPa | 0 mm | - | - | - |
| 1777169116 | 16.67° C | 65% | 1014.8 hPa | 0 mm | - | - | - |
| 1777163715 | 19.44° C | 56% | 1014.2 hPa | 0 mm | - | - | - |
| 1777158917 | 21.11° C | 53% | 1014.3 hPa | 0 mm | - | - | - |
| 1777158017 | 21.11° C | 53% | 1014.1 hPa | 0 mm | - | - | - |
| 1777155917 | 21.67° C | 50% | 1013.9 hPa | 0 mm | - | - | - |
| 1777155317 | 21.67° C | 49% | 1013.8 hPa | 0 mm | - | - | - |
| 1777154717 | 21.67° C | 51% | 1013.6 hPa | 0 mm | - | - | - |
| 1777152317 | 21.67° C | 54% | 1013.6 hPa | 0 mm | - | - | - |
| 1777152017 | 21.67° C | 53% | 1013.7 hPa | 0 mm | - | - | - |
| 1777151117 | 21.67° C | 53% | 1013.7 hPa | 0 mm | - | - | - |
| 1777149617 | 22.22° C | 50% | 1013.8 hPa | 0 mm | - | - | - |
| 1777149317 | 22.22° C | 51% | 1013.8 hPa | 0 mm | - | - | - |
| 1777148117 | 21.67° C | 55% | 1014 hPa | 0 mm | - | - | - |
| 1777147817 | 21.67° C | 51% | 1014.1 hPa | 0 mm | - | - | - |
| 1777147217 | 21.67° C | 52% | 1014.2 hPa | 0 mm | - | - | - |
| 1777146017 | 21.67° C | 52% | 1014.4 hPa | 0 mm | - | - | - |
| 1777145417 | 21.67° C | 51% | 1014.5 hPa | 0 mm | - | - | - |
| 1777143917 | 21.11° C | 56% | 1014.5 hPa | 0 mm | - | - | - |
| 1777142137 | 21.11° C | 53% | 1014.6 hPa | 0 mm | - | - | - |
| 1777141817 | 21.11° C | 57% | 1014.6 hPa | 0 mm | - | - | - |
| 1777140617 | 20° C | 58% | 1014.7 hPa | 0 mm | - | - | - |
| 1777138217 | 19.44° C | 57% | 1015.1 hPa | 0 mm | - | - | - |
* Rain latest hour (hover to see other rain measurements)
** Current wind speed in m/s (hover to see current wind gust speed)